Time;durP1;ratioP1;P1;durP2;ratioP2;P2;SDS_P1;SDS_P2;PMS_P1;PMS_P2;Temp;Humidity;BMP_temperature;BMP_pressure;BME280_temperature;BME280_humidity;BME280_pressure;Samples;Min_cycle;Max_cycle;Signal;HPM_P1;HPM_P2
2022/01/16 00:04:09;;;;;;;19.37;13.52;;;;;;;0.96;92.63;96099.94;4351185;32;20333;-62
2022/01/16 00:06:45;;;;;;;17.77;13.00;;;;;;;1.23;92.51;96113.56;4320023;32;20207;-63
2022/01/16 00:09:11;;;;;;;22.98;13.15;;;;;;;0.98;93.12;96084.84;4326924;32;20207;-63
2022/01/16 00:11:38;;;;;;;18.27;12.88;;;;;;;1.08;92.94;96060.84;4347633;32;20236;-63
2022/01/16 00:14:06;;;;;;;19.40;13.27;;;;;;;1.28;92.18;96082.34;4340560;32;20194;-63
2022/01/16 00:16:31;;;;;;;19.50;13.13;;;;;;;1.48;91.58;96087.38;4350359;32;20334;-63
2022/01/16 00:18:58;;;;;;;18.73;12.90;;;;;;;1.18;91.95;96078.66;4357450;32;20254;-63
2022/01/16 00:21:28;;;;;;;20.63;14.37;;;;;;;1.21;92.20;96075.63;4364040;32;20212;-63
2022/01/16 00:23:55;;;;;;;17.70;12.55;;;;;;;1.25;92.14;96071.53;4331051;32;20202;-62
2022/01/16 00:26:21;;;;;;;18.27;12.23;;;;;;;1.34;91.40;96065.81;4329157;32;20197;-63
2022/01/16 00:28:49;;;;;;;23.40;13.20;;;;;;;1.72;90.47;96057.75;4357231;32;20239;-63
2022/01/16 00:31:16;;;;;;;19.92;12.77;;;;;;;1.79;89.76;96022.87;4339154;32;20193;-63
2022/01/16 00:33:45;;;;;;;22.08;13.70;;;;;;;1.77;89.87;96036.19;4336873;32;20192;-63
2022/01/16 00:36:17;;;;;;;19.20;12.88;;;;;;;1.96;88.57;96039.56;4352603;32;20190;-63
2022/01/16 00:38:44;;;;;;;18.73;13.23;;;;;;;1.97;88.12;96068.13;4345596;32;20215;-63
2022/01/16 00:41:20;;;;;;;19.00;12.85;;;;;;;1.98;88.20;96055.84;4334952;32;20203;-63
2022/01/16 00:43:47;;;;;;;19.12;11.75;;;;;;;1.93;88.54;96059.09;4364215;32;20203;-63
2022/01/16 00:46:13;;;;;;;18.08;12.82;;;;;;;1.83;88.18;96061.47;4361119;32;20209;-63
2022/01/16 00:48:39;;;;;;;20.87;12.93;;;;;;;1.87;88.95;96067.06;4329287;32;20234;-62
2022/01/16 00:51:06;;;;;;;21.30;12.90;;;;;;;1.69;89.46;96052.97;4333093;32;20192;-63
2022/01/16 00:53:31;;;;;;;18.75;12.98;;;;;;;1.78;89.19;96037.78;4342627;32;20209;-63
2022/01/16 00:55:58;;;;;;;15.73;11.67;;;;;;;1.61;89.97;96039.41;4328945;32;20194;-63
2022/01/16 00:58:24;;;;;;;20.30;12.57;;;;;;;1.94;89.21;96044.22;4362047;32;20196;-63
2022/01/16 01:00:54;;;;;;;19.97;12.87;;;;;;;1.89;89.31;96044.87;4346775;32;20197;-62
2022/01/16 01:03:22;;;;;;;22.37;13.62;;;;;;;1.78;89.40;96044.81;4351939;32;20181;-64
2022/01/16 01:05:50;;;;;;;20.17;12.68;;;;;;;2.02;88.47;96052.56;4371283;32;20266;-62
2022/01/16 01:08:17;;;;;;;18.67;13.05;;;;;;;2.12;87.89;96062.50;4374910;32;20189;-62
2022/01/16 01:10:46;;;;;;;20.00;13.13;;;;;;;2.08;87.97;96085.69;4333747;32;20220;-62
2022/01/16 01:13:21;;;;;;;20.55;13.52;;;;;;;1.85;88.27;96088.19;4324837;32;20324;-63
2022/01/16 01:15:51;;;;;;;17.83;12.73;;;;;;;2.14;87.69;96080.59;4349956;32;20338;-63
2022/01/16 01:18:19;;;;;;;19.17;13.20;;;;;;;2.23;87.16;96077.47;4371383;32;20407;-63
2022/01/16 01:20:48;;;;;;;19.37;12.97;;;;;;;2.13;87.19;96011.75;4337201;32;20273;-63
2022/01/16 01:23:15;;;;;;;19.50;13.97;;;;;;;2.01;87.98;95998.66;4346572;32;20269;-62
2022/01/16 01:25:42;;;;;;;18.90;13.63;;;;;;;2.01;87.90;95993.41;4332309;32;20278;-63
2022/01/16 01:28:08;;;;;;;17.83;13.03;;;;;;;2.06;87.23;95996.16;4365441;32;20347;-62
2022/01/16 01:30:37;;;;;;;20.07;13.73;;;;;;;2.08;87.19;95987.28;4353121;32;20310;-63
2022/01/16 01:33:05;;;;;;;19.67;13.77;;;;;;;2.11;87.08;95984.22;4364003;32;20295;-63
2022/01/16 01:35:38;;;;;;;15.88;11.93;;;;;;;2.02;87.28;96010.72;4355999;32;20181;-63
2022/01/16 01:38:07;;;;;;;18.67;12.73;;;;;;;1.93;88.32;96027.72;4302947;32;20185;-63
2022/01/16 01:40:35;;;;;;;17.40;12.57;;;;;;;2.13;87.41;96052.81;4331100;32;20266;-64
2022/01/16 01:51:22;;;;;;;14.53;11.63;;;;;;;1.78;87.77;96060.53;4345826;32;20368;-62
2022/01/16 01:53:51;;;;;;;15.27;11.83;;;;;;;1.98;87.41;96040.13;4326099;32;20343;-63
2022/01/16 01:56:21;;;;;;;17.60;11.90;;;;;;;1.88;87.72;96024.97;4336386;32;20351;-63
2022/01/16 01:58:47;;;;;;;16.30;11.93;;;;;;;1.67;88.72;96031.47;4357435;32;20273;-63
2022/01/16 02:01:12;;;;;;;17.07;12.67;;;;;;;1.94;88.03;96050.25;4355216;32;20280;-63
2022/01/16 02:06:06;;;;;;;19.47;13.20;;;;;;;1.70;87.62;96058.97;4346435;32;20204;-63
2022/01/16 02:08:35;;;;;;;20.30;12.93;;;;;;;1.75;88.11;96066.97;4330351;32;20209;-63
2022/01/16 02:11:02;;;;;;;19.37;13.13;;;;;;;1.47;89.34;96074.53;4322089;32;20270;-63
2022/01/16 02:13:44;;;;;;;16.20;12.02;;;;;;;1.22;90.49;96074.59;4341133;32;20298;-62
2022/01/16 02:30:49;;;;;;;22.80;14.18;;;;;;;1.25;90.85;96050.63;4350545;32;20196;-63
2022/01/16 02:35:36;;;;;;;22.02;14.48;;;;;;;1.35;90.63;96038.66;4316485;32;20279;-63
2022/01/16 02:38:03;;;;;;;20.23;13.90;;;;;;;1.51;90.89;96050.34;4354130;32;20181;-63
2022/01/16 02:40:31;;;;;;;23.98;14.63;;;;;;;1.79;89.36;96042.00;4350919;32;20173;-62
2022/01/16 02:42:57;;;;;;;20.35;13.23;;;;;;;1.69;89.34;96041.69;4349265;32;20182;-63
2022/01/16 02:45:30;;;;;;;22.13;14.02;;;;;;;1.56;89.74;96032.22;4334847;32;20347;-63
2022/01/16 02:48:05;;;;;;;20.67;13.37;;;;;;;1.82;89.31;96030.28;4359375;32;20273;-62
2022/01/16 02:50:35;;;;;;;19.80;12.70;;;;;;;1.10;91.30;96029.28;4341727;32;20296;-63
2022/01/16 02:53:12;;;;;;;18.95;13.48;;;;;;;1.53;90.49;96024.00;4351653;32;20252;-64
2022/01/16 02:55:41;;;;;;;19.65;12.82;;;;;;;1.83;89.20;96017.00;4356681;32;20239;-62
2022/01/16 02:58:06;;;;;;;21.42;13.88;;;;;;;1.63;89.71;96006.78;4361529;32;20184;-62
2022/01/16 03:00:32;;;;;;;18.90;13.47;;;;;;;1.65;89.51;96009.19;4362336;32;20196;-63
2022/01/16 03:02:57;;;;;;;17.80;12.13;;;;;;;1.81;89.11;96023.47;4333918;32;20235;-63
2022/01/16 03:05:23;;;;;;;15.40;12.33;;;;;;;2.02;88.22;96005.47;4321879;32;20181;-63
2022/01/16 03:07:48;;;;;;;17.97;13.13;;;;;;;1.84;88.61;96009.97;4344623;32;20207;-63
2022/01/16 03:13:01;;;;;;;23.50;13.90;;;;;;;1.79;88.72;96004.59;4351286;32;20200;-63
2022/01/16 03:15:27;;;;;;;19.93;13.23;;;;;;;1.49;89.84;95999.31;4315515;32;20266;-62
2022/01/16 03:23:22;;;;;;;19.83;13.75;;;;;;;1.43;91.63;95994.97;4358435;32;20279;-63
2022/01/16 03:25:51;;;;;;;18.23;13.05;;;;;;;1.46;91.84;95990.09;4346633;32;20196;-62
2022/01/16 03:28:19;;;;;;;20.05;13.80;;;;;;;1.77;90.58;95991.72;4360166;32;20201;-63
2022/01/16 03:30:46;;;;;;;22.00;14.00;;;;;;;1.83;89.74;95996.06;4347127;32;20291;-63
2022/01/16 03:33:14;;;;;;;20.52;14.38;;;;;;;1.79;89.72;95984.47;4343127;32;20253;-63
2022/01/16 03:35:39;;;;;;;23.23;15.00;;;;;;;1.81;90.18;95992.87;4359642;32;20169;-63
2022/01/16 03:38:06;;;;;;;25.17;15.55;;;;;;;1.70;90.17;95980.53;4352526;32;20193;-63
2022/01/16 03:40:32;;;;;;;20.65;14.32;;;;;;;1.59;90.81;95984.72;4321548;32;20182;-62
2022/01/16 03:43:09;;;;;;;21.25;14.68;;;;;;;1.86;90.22;95977.34;4342373;32;20239;-64
2022/01/16 03:45:36;;;;;;;20.05;14.87;;;;;;;1.69;90.79;95973.72;4340276;32;20180;-63
2022/01/16 03:48:03;;;;;;;20.83;14.40;;;;;;;1.74;90.54;95966.00;4333087;32;20250;-63
2022/01/16 03:50:34;;;;;;;21.58;14.30;;;;;;;1.72;90.88;95965.44;4333821;32;20268;-63
2022/01/16 03:52:59;;;;;;;23.65;14.93;;;;;;;1.56;91.50;95971.28;4347562;32;20257;-63
2022/01/16 03:55:25;;;;;;;24.70;16.00;;;;;;;1.69;91.32;95965.88;4332530;32;20291;-63
2022/01/16 03:57:50;;;;;;;22.63;15.47;;;;;;;1.84;90.45;95976.75;4321829;32;20197;-63
2022/01/16 04:00:15;;;;;;;21.57;14.50;;;;;;;2.07;89.74;95962.94;4324297;32;20181;-63
2022/01/16 04:02:42;;;;;;;19.67;14.07;;;;;;;1.97;89.79;95968.72;4340447;32;20197;-63
2022/01/16 04:05:08;;;;;;;22.75;15.18;;;;;;;1.99;89.87;95968.50;4326769;32;20255;-62
2022/01/16 04:07:35;;;;;;;25.90;14.70;;;;;;;1.74;90.18;95971.25;4337582;32;20252;-63
2022/01/16 04:10:03;;;;;;;23.15;15.48;;;;;;;1.61;90.88;95987.09;4342670;32;20207;-63
2022/01/16 04:12:29;;;;;;;20.42;15.23;;;;;;;1.68;90.90;95986.00;4317319;32;20197;-62
2022/01/16 04:17:24;;;;;;;20.83;14.80;;;;;;;1.90;90.73;95988.12;4347567;32;20199;-63
2022/01/16 04:19:51;;;;;;;20.70;14.65;;;;;;;1.85;90.16;95982.78;4340910;32;20299;-63
2022/01/16 04:22:18;;;;;;;19.67;14.15;;;;;;;1.81;90.30;95995.50;4323975;32;20196;-62
2022/01/16 04:24:44;;;;;;;20.42;14.27;;;;;;;1.71;90.19;95998.63;4316568;32;20217;-63
2022/01/16 04:27:11;;;;;;;21.17;14.93;;;;;;;1.43;91.63;95994.97;4334082;32;20198;-63
2022/01/16 04:29:38;;;;;;;18.95;14.10;;;;;;;1.27;92.74;95991.91;4336518;32;20185;-63
2022/01/16 04:32:05;;;;;;;18.55;13.82;;;;;;;1.65;92.00;95988.28;4319998;32;20197;-63
2022/01/16 04:34:30;;;;;;;18.33;14.13;;;;;;;1.65;91.34;95983.84;4323033;32;20201;-63
2022/01/16 04:36:55;;;;;;;22.40;14.13;;;;;;;1.54;91.74;95989.78;4347099;32;20274;-63
2022/01/16 04:39:30;;;;;;;17.97;13.57;;;;;;;1.59;91.54;95992.56;4326048;32;20185;-62
2022/01/16 04:44:41;;;;;;;18.15;13.75;;;;;;;1.28;92.99;95998.72;4344618;32;20228;-63
2022/01/16 04:47:07;;;;;;;20.10;14.67;;;;;;;1.30;92.97;95991.47;4329470;32;20193;-63
2022/01/16 04:49:34;;;;;;;18.12;13.48;;;;;;;1.52;92.71;95997.06;4344352;32;20243;-65
2022/01/16 04:52:02;;;;;;;18.15;13.60;;;;;;;1.45;91.74;95996.34;4349508;32;20219;-62
2022/01/16 04:54:31;;;;;;;17.08;12.57;;;;;;;1.60;91.40;96003.81;4289531;33;20209;-63
2022/01/16 04:56:58;;;;;;;16.70;12.68;;;;;;;1.56;90.70;95994.81;4318707;32;20182;-63
2022/01/16 04:59:24;;;;;;;18.02;13.13;;;;;;;1.49;90.66;96012.38;4336699;32;20261;-63
2022/01/16 05:01:51;;;;;;;15.63;12.10;;;;;;;1.55;90.63;95998.44;4309062;33;20213;-63
2022/01/16 05:04:19;;;;;;;13.85;10.93;;;;;;;1.58;89.73;95996.19;4277220;32;20182;-63
2022/01/16 05:06:44;;;;;;;15.00;12.23;;;;;;;1.28;90.54;96001.34;4328063;32;20182;-62
2022/01/16 05:09:12;;;;;;;17.07;12.53;;;;;;;1.32;90.21;96005.13;4325537;32;20279;-63
2022/01/16 05:11:56;;;;;;;12.68;10.98;;;;;;;1.34;89.78;96005.72;4322160;32;20259;-63
2022/01/16 05:17:08;;;;;;;15.95;12.18;;;;;;;1.03;90.10;96003.25;4319389;32;20208;-63
2022/01/16 05:19:33;;;;;;;14.93;12.10;;;;;;;0.97;90.32;96015.34;4340018;32;20186;-63
2022/01/16 05:21:59;;;;;;;15.27;12.33;;;;;;;0.87;91.03;96022.06;4320017;32;20173;-62
2022/01/16 05:24:31;;;;;;;14.40;12.53;;;;;;;0.77;91.72;96008.72;4308101;32;21433;-63
2022/01/16 05:27:11;;;;;;;14.93;12.18;;;;;;;0.94;91.08;96012.38;4319689;32;20311;-63
2022/01/16 05:29:37;;;;;;;15.05;12.37;;;;;;;1.06;90.20;96005.41;4299456;32;20170;-62
2022/01/16 05:32:04;;;;;;;16.33;13.07;;;;;;;1.02;90.38;96004.25;4331106;32;20177;-66
2022/01/16 05:34:30;;;;;;;15.27;12.40;;;;;;;0.99;90.24;96010.72;4334137;32;20189;-63
2022/01/16 05:36:57;;;;;;;15.27;13.27;;;;;;;0.93;90.80;96010.75;4332018;32;20288;-63
2022/01/16 05:39:23;;;;;;;16.33;13.32;;;;;;;0.97;91.05;96009.31;4328903;32;20244;-63
2022/01/16 05:41:50;;;;;;;16.00;13.27;;;;;;;0.98;90.67;96011.72;4331093;32;20197;-63
2022/01/16 05:44:17;;;;;;;16.33;13.73;;;;;;;0.71;91.58;96014.78;4313288;32;20178;-62
2022/01/16 05:46:44;;;;;;;16.70;13.43;;;;;;;0.77;92.06;96016.53;4342026;32;20190;-63
2022/01/16 05:49:09;;;;;;;15.55;12.55;;;;;;;0.93;91.40;96021.22;4333730;32;20231;-62
2022/01/16 05:51:36;;;;;;;16.37;13.43;;;;;;;1.08;90.55;96023.47;4343546;32;20177;-63
2022/01/16 05:54:03;;;;;;;15.98;13.35;;;;;;;1.14;90.29;96025.22;4347644;32;20186;-63
2022/01/16 05:56:34;;;;;;;15.98;12.20;;;;;;;1.02;90.12;96025.16;4333039;32;20202;-62
2022/01/16 05:59:00;;;;;;;15.48;12.73;;;;;;;1.17;89.99;96037.87;4332931;32;20203;-63
2022/01/16 06:01:26;;;;;;;15.80;13.57;;;;;;;1.12;89.66;96035.09;4325192;32;20248;-63
2022/01/16 06:03:52;;;;;;;14.97;12.87;;;;;;;1.10;90.19;96037.91;4336026;32;20197;-62
2022/01/16 06:06:18;;;;;;;15.75;13.50;;;;;;;1.17;89.39;96046.50;4306427;32;20287;-62
2022/01/16 06:08:45;;;;;;;14.37;12.47;;;;;;;1.02;89.71;96040.81;4322445;32;20185;-62
2022/01/16 06:11:12;;;;;;;14.93;13.32;;;;;;;1.19;89.06;96044.47;4322628;32;20174;-63
2022/01/16 06:13:39;;;;;;;15.55;13.95;;;;;;;1.17;88.97;96041.28;4341430;32;20177;-63
2022/01/16 06:16:09;;;;;;;15.57;13.32;;;;;;;0.91;89.54;96044.94;4333635;32;20200;-62
2022/01/16 06:18:35;;;;;;;15.63;13.62;;;;;;;1.01;88.51;96054.91;4347513;32;20268;-62
2022/01/16 06:21:00;;;;;;;16.80;14.03;;;;;;;0.89;88.47;96051.38;4341078;33;20182;-62
2022/01/16 06:23:27;;;;;;;17.80;14.53;;;;;;;0.92;88.64;96050.94;4344481;32;20244;-62
2022/01/16 06:25:54;;;;;;;16.05;14.27;;;;;;;0.84;88.85;96053.81;4331083;32;20186;-62
2022/01/16 06:28:25;;;;;;;16.15;13.25;;;;;;;0.90;88.08;96066.03;4327129;32;20234;-63
2022/01/16 06:30:51;;;;;;;16.25;14.55;;;;;;;0.86;88.49;96057.03;4326902;32;20203;-62
2022/01/16 06:33:17;;;;;;;17.07;15.23;;;;;;;0.77;89.30;96066.94;4311249;32;20181;-63
2022/01/16 06:35:44;;;;;;;18.62;15.38;;;;;;;0.76;89.30;96067.97;4331463;32;20189;-63
2022/01/16 06:38:11;;;;;;;17.87;15.27;;;;;;;0.87;88.77;96066.44;4334636;32;20204;-63
2022/01/16 06:40:37;;;;;;;17.77;15.48;;;;;;;0.84;88.29;96069.47;4355165;32;20245;-63
2022/01/16 06:43:02;;;;;;;19.03;14.77;;;;;;;0.82;88.82;96067.13;4341877;32;20196;-62
2022/01/16 06:45:29;;;;;;;16.77;14.53;;;;;;;1.02;87.98;96061.72;4318454;32;20240;-62
2022/01/16 06:47:55;;;;;;;17.85;15.43;;;;;;;0.81;88.55;96064.72;4326452;32;20177;-63
2022/01/16 06:50:22;;;;;;;16.80;14.60;;;;;;;0.76;88.77;96072.38;4357911;32;20208;-62
2022/01/16 06:52:50;;;;;;;18.12;15.05;;;;;;;0.84;88.50;96065.06;4359384;32;20181;-62
2022/01/16 06:55:15;;;;;;;18.65;15.65;;;;;;;0.97;87.87;96070.19;4329577;32;20186;-62
2022/01/16 06:57:41;;;;;;;18.90;15.33;;;;;;;0.92;87.32;96070.03;4334789;32;20189;-62
2022/01/16 07:00:08;;;;;;;18.20;15.23;;;;;;;0.93;87.73;96066.41;4343856;32;20185;-62
2022/01/16 07:02:36;;;;;;;18.90;15.70;;;;;;;0.91;88.52;96075.47;4334981;32;20189;-65
2022/01/16 07:05:04;;;;;;;18.10;15.18;;;;;;;0.86;88.27;96076.09;4344205;32;20178;-62
2022/01/16 07:07:32;;;;;;;17.87;15.75;;;;;;;0.86;88.58;96089.16;4327223;32;20181;-63
2022/01/16 07:09:58;;;;;;;20.00;15.02;;;;;;;0.78;88.90;96083.41;4287680;32;20256;-62
2022/01/16 07:12:24;;;;;;;17.90;15.30;;;;;;;0.93;88.04;96092.53;4315695;32;20280;-63
2022/01/16 07:14:50;;;;;;;17.52;14.73;;;;;;;0.71;88.93;96087.88;4321678;32;20178;-62
2022/01/16 07:17:18;;;;;;;18.20;14.73;;;;;;;0.81;88.47;96090.81;4345219;32;20181;-63
2022/01/16 07:19:45;;;;;;;17.40;14.77;;;;;;;0.72;88.77;96084.25;4349652;32;20235;-62
2022/01/16 07:22:10;;;;;;;16.70;14.75;;;;;;;0.85;88.32;96084.94;4342217;32;20256;-62
2022/01/16 07:24:37;;;;;;;17.10;14.87;;;;;;;0.69;88.38;96081.06;4341715;32;20203;-63
2022/01/16 07:27:02;;;;;;;18.20;15.02;;;;;;;0.83;88.29;96079.12;4319624;33;20190;-63
2022/01/16 07:29:28;;;;;;;19.03;15.63;;;;;;;0.65;88.79;96087.69;4318987;32;20174;-62
2022/01/16 07:31:54;;;;;;;17.23;14.82;;;;;;;0.63;88.64;96087.12;4337416;32;20279;-63
2022/01/16 07:34:21;;;;;;;19.53;15.20;;;;;;;0.68;88.95;96095.12;4329334;32;20181;-62
2022/01/16 07:36:46;;;;;;;16.12;14.40;;;;;;;0.82;88.79;96087.22;4356173;32;20185;-62
2022/01/16 07:39:16;;;;;;;17.90;13.73;;;;;;;0.85;88.02;96084.16;4346445;32;20203;-63
2022/01/16 07:41:42;;;;;;;15.88;14.18;;;;;;;0.91;87.99;96101.59;4340942;32;20181;-62
2022/01/16 07:44:09;;;;;;;16.48;14.15;;;;;;;0.95;87.58;96094.94;4339405;32;20181;-62
2022/01/16 07:46:35;;;;;;;15.43;13.27;;;;;;;0.85;88.12;96098.00;4327545;32;20227;-63
2022/01/16 07:49:00;;;;;;;15.48;13.88;;;;;;;0.94;87.54;96106.37;4354444;32;20192;-63
2022/01/16 07:51:27;;;;;;;15.57;13.97;;;;;;;0.89;87.54;96109.62;4361963;32;20204;-63
2022/01/16 07:53:52;;;;;;;15.48;13.60;;;;;;;0.80;87.78;96110.12;4327066;32;20271;-63
2022/01/16 07:56:19;;;;;;;15.00;13.50;;;;;;;0.97;87.73;96119.03;4359556;32;20225;-63
2022/01/16 07:58:44;;;;;;;15.65;14.05;;;;;;;1.15;86.11;96121.69;4355638;32;20191;-62
2022/01/16 08:01:10;;;;;;;14.07;12.67;;;;;;;1.03;86.03;96124.19;4363881;32;20185;-63
2022/01/16 08:03:35;;;;;;;14.97;12.93;;;;;;;1.04;85.93;96125.78;4357038;32;20193;-63
2022/01/16 08:06:02;;;;;;;14.47;12.97;;;;;;;1.15;85.46;96129.50;4344208;32;20189;-63
2022/01/16 08:08:28;;;;;;;14.75;13.07;;;;;;;1.00;85.55;96135.06;4327823;32;20192;-63
2022/01/16 08:10:54;;;;;;;14.15;12.75;;;;;;;0.97;86.24;96132.06;4354093;32;20265;-63
2022/01/16 08:13:19;;;;;;;14.83;13.23;;;;;;;1.26;85.34;96136.63;4344764;32;20235;-63
2022/01/16 08:15:46;;;;;;;13.73;12.20;;;;;;;1.25;84.49;96137.66;4353594;32;20177;-62
2022/01/16 08:18:12;;;;;;;14.50;13.02;;;;;;;1.16;85.09;96133.72;4364275;32;20189;-63
2022/01/16 08:20:38;;;;;;;13.87;12.47;;;;;;;1.17;85.00;96127.50;4335297;32;20216;-63
2022/01/16 08:23:03;;;;;;;14.07;12.68;;;;;;;1.32;84.98;96124.53;4320075;32;20201;-66
2022/01/16 08:25:33;;;;;;;15.37;13.80;;;;;;;1.40;85.07;96113.03;4357000;32;20278;-63
2022/01/16 08:27:59;;;;;;;14.68;13.20;;;;;;;1.56;83.95;96121.09;4358147;32;20246;-63
2022/01/16 08:30:25;;;;;;;18.20;13.50;;;;;;;1.27;84.76;96117.34;4332412;32;20281;-63
2022/01/16 08:32:52;;;;;;;14.18;12.77;;;;;;;1.44;84.35;96127.25;4342796;32;20184;-63
2022/01/16 08:35:18;;;;;;;14.70;12.80;;;;;;;1.57;83.89;96127.13;4350816;32;20215;-63
2022/01/16 08:37:43;;;;;;;14.80;13.07;;;;;;;1.48;84.29;96117.94;4326945;32;20188;-62
2022/01/16 08:40:13;;;;;;;13.77;12.37;;;;;;;1.70;83.76;96121.75;4362971;32;20187;-63
2022/01/16 08:42:42;;;;;;;14.50;13.00;;;;;;;1.73;83.06;96123.94;4345898;32;20224;-62
2022/01/16 08:45:11;;;;;;;13.75;12.45;;;;;;;1.89;81.69;96112.88;4343598;32;20235;-63
2022/01/16 08:47:37;;;;;;;14.95;12.73;;;;;;;1.95;81.76;96109.41;4355965;32;20181;-63
2022/01/16 08:50:06;;;;;;;14.23;11.82;;;;;;;1.96;80.76;96110.19;4355817;32;20203;-63
2022/01/16 08:52:32;;;;;;;13.05;11.68;;;;;;;1.99;79.92;96109.75;4333734;32;20231;-63
2022/01/16 08:54:58;;;;;;;13.73;12.00;;;;;;;2.05;79.39;96103.66;4352583;32;20189;-63
2022/01/16 08:57:23;;;;;;;14.13;12.63;;;;;;;2.09;78.08;96104.78;4289851;33;20283;-63
2022/01/16 08:59:49;;;;;;;13.10;11.80;;;;;;;2.22;78.14;96103.84;4330169;32;20246;-63
2022/01/16 09:02:15;;;;;;;13.53;11.87;;;;;;;2.36;77.12;96105.25;4352570;32;20189;-63
2022/01/16 09:04:43;;;;;;;19.37;11.63;;;;;;;2.41;76.37;96103.59;4348789;32;20199;-63
2022/01/16 09:07:10;;;;;;;14.60;12.87;;;;;;;2.58;75.52;96114.22;4319667;32;20278;-63
2022/01/16 09:09:35;;;;;;;14.00;11.57;;;;;;;2.45;75.93;96116.22;4345612;32;20287;-64
2022/01/16 09:12:05;;;;;;;12.43;11.13;;;;;;;2.61;75.67;96118.22;4330307;32;20289;-63
2022/01/16 09:14:31;;;;;;;14.87;11.07;;;;;;;2.64;75.09;96123.81;4310499;32;20280;-63
2022/01/16 09:17:01;;;;;;;14.60;11.13;;;;;;;2.75;73.45;96115.16;4320147;32;20279;-63
2022/01/16 09:19:29;;;;;;;13.30;11.50;;;;;;;2.70;73.43;96120.28;4319491;32;20270;-63
2022/01/16 09:21:56;;;;;;;13.27;11.07;;;;;;;2.84;73.38;96127.97;4342417;32;20395;-63
2022/01/16 09:24:23;;;;;;;11.90;10.70;;;;;;;2.84;72.44;96114.84;4302905;32;20343;-63
2022/01/16 09:26:54;;;;;;;12.40;11.00;;;;;;;2.77;72.76;96122.81;4315846;32;20313;-63
2022/01/16 09:29:21;;;;;;;12.53;11.10;;;;;;;2.58;72.86;96124.69;4319035;32;20274;-63
2022/01/16 09:31:48;;;;;;;14.13;11.30;;;;;;;2.76;73.20;96129.06;4328558;32;20373;-63
2022/01/16 09:34:15;;;;;;;12.00;10.63;;;;;;;2.82;72.41;96122.13;4332692;32;20446;-63
2022/01/16 09:36:40;;;;;;;11.60;10.20;;;;;;;2.89;72.82;96133.34;4334239;32;20292;-63
2022/01/16 09:39:07;;;;;;;12.57;10.77;;;;;;;2.97;72.39;96127.75;4348644;32;20269;-63
2022/01/16 09:41:32;;;;;;;12.77;10.30;;;;;;;2.89;72.07;96128.09;4347364;32;20251;-63
2022/01/16 09:44:02;;;;;;;14.17;11.07;;;;;;;2.83;72.58;96131.59;4358845;32;20281;-63
2022/01/16 09:46:28;;;;;;;13.90;10.97;;;;;;;2.88;72.69;96123.88;4349389;32;20185;-62
2022/01/16 09:48:55;;;;;;;12.27;10.97;;;;;;;2.84;73.00;96133.19;4343697;32;20353;-64
2022/01/16 09:51:20;;;;;;;11.73;10.53;;;;;;;2.83;72.85;96131.59;4306041;32;20213;-63
2022/01/16 09:53:46;;;;;;;15.10;11.97;;;;;;;2.77;73.26;96133.28;4334017;32;20303;-63
2022/01/16 09:56:12;;;;;;;14.40;10.83;;;;;;;2.95;72.92;96133.22;4318541;32;20181;-63
2022/01/16 09:58:39;;;;;;;12.13;10.80;;;;;;;3.06;73.00;96131.66;4332335;32;20188;-63
2022/01/16 10:01:07;;;;;;;11.97;9.53;;;;;;;3.11;72.81;96131.78;4332834;32;20272;-63
2022/01/16 10:03:46;;;;;;;12.57;10.33;;;;;;;3.12;72.15;96128.09;4326673;32;20290;-62
2022/01/16 10:06:13;;;;;;;11.47;10.27;;;;;;;3.21;71.20;96128.59;4330679;32;20344;-61
2022/01/16 10:08:39;;;;;;;10.80;9.70;;;;;;;3.25;71.37;96130.53;4334191;32;20380;-61
2022/01/16 10:11:38;;;;;;;11.53;9.73;;;;;;;3.28;71.43;96129.28;4338751;32;20289;-62
2022/01/16 10:17:35;;;;;;;11.27;10.07;;;;;;;3.21;72.14;96129.37;4324792;32;20273;-61
2022/01/16 10:20:09;;;;;;;14.07;10.30;;;;;;;3.53;71.18;96136.94;4328364;32;20282;-61
2022/01/16 10:23:15;;;;;;;12.03;10.23;;;;;;;3.68;69.93;96132.81;4329188;32;20277;-61
2022/01/16 10:25:47;;;;;;;12.37;10.27;;;;;;;3.72;70.16;96135.78;4308841;33;20301;-61
2022/01/16 10:28:20;;;;;;;11.10;10.00;;;;;;;3.80;70.31;96138.84;4339974;32;20292;-61
2022/01/16 10:30:49;;;;;;;11.23;10.10;;;;;;;3.86;70.12;96120.59;4343408;32;20286;-61
2022/01/16 10:33:21;;;;;;;11.67;10.10;;;;;;;3.81;70.83;96118.66;4348902;32;20277;-61
2022/01/16 10:35:50;;;;;;;11.07;9.93;;;;;;;3.90;70.85;96122.53;4306129;33;20340;-61
2022/01/16 10:38:44;;;;;;;11.97;10.43;;;;;;;3.80;70.81;96117.84;4320307;33;20304;-61
2022/01/16 10:41:13;;;;;;;13.67;10.60;;;;;;;3.83;71.48;96116.59;4318682;32;20273;-61
2022/01/16 10:43:46;;;;;;;12.40;9.60;;;;;;;4.06;70.49;96113.13;4345053;32;20373;-61
2022/01/16 10:46:15;;;;;;;11.73;10.30;;;;;;;4.10;70.62;96111.63;4342952;32;20308;-61
2022/01/16 10:48:41;;;;;;;10.73;9.47;;;;;;;4.16;70.87;96123.03;4330299;32;20281;-61
2022/01/16 10:51:23;;;;;;;10.17;9.10;;;;;;;4.13;71.32;96114.59;4333041;32;20293;-61
2022/01/16 10:53:50;;;;;;;10.73;9.60;;;;;;;4.23;71.31;96115.81;4318852;33;20231;-61
2022/01/16 10:56:26;;;;;;;10.67;9.47;;;;;;;4.17;71.38;96116.72;4332841;32;20280;-61
2022/01/16 10:58:56;;;;;;;10.93;9.80;;;;;;;4.17;71.73;96111.47;4335136;32;20285;-61
2022/01/16 11:01:22;;;;;;;10.33;9.30;;;;;;;4.24;72.21;96122.66;4281042;32;20293;-60
2022/01/16 11:03:51;;;;;;;12.53;10.20;;;;;;;4.37;71.64;96104.00;4322221;32;20386;-61
2022/01/16 11:06:23;;;;;;;13.37;10.63;;;;;;;4.40;71.81;96117.47;4352868;32;20302;-61
2022/01/16 11:08:53;;;;;;;11.03;9.80;;;;;;;4.37;72.04;96115.28;4350394;32;20311;-61
2022/01/16 11:11:22;;;;;;;10.30;9.20;;;;;;;4.36;72.41;96124.22;4334415;32;20301;-61
2022/01/16 11:13:51;;;;;;;10.37;9.10;;;;;;;4.50;72.07;96122.13;4309661;32;20269;-61
2022/01/16 11:16:17;;;;;;;11.27;9.43;;;;;;;4.42;72.65;96125.09;4347403;32;20322;-62
2022/01/16 11:18:49;;;;;;;12.53;9.63;;;;;;;4.36;72.91;96123.44;4319993;32;20277;-61
2022/01/16 11:21:19;;;;;;;10.70;9.70;;;;;;;4.41;72.87;96126.94;4321988;32;20199;-61
2022/01/16 11:26:18;;;;;;;11.37;9.60;;;;;;;4.48;73.21;96124.19;4310748;32;20282;-61
2022/01/16 11:28:45;;;;;;;10.63;9.53;;;;;;;4.64;72.40;96125.25;4328959;32;20277;-61
2022/01/16 11:31:12;;;;;;;10.93;9.83;;;;;;;4.62;72.77;96125.47;4355431;32;20363;-61
2022/01/16 11:33:41;;;;;;;9.57;8.67;;;;;;;4.64;72.92;96133.94;4336606;32;20299;-62
2022/01/16 11:36:20;;;;;;;9.63;8.67;;;;;;;4.61;73.12;96131.75;4321224;32;20281;-62
2022/01/16 11:38:53;;;;;;;11.30;10.10;;;;;;;4.60;74.04;96127.53;4350349;32;20273;-62
2022/01/16 11:41:34;;;;;;;10.93;9.73;;;;;;;4.65;73.21;96130.25;4362631;32;20406;-61
2022/01/16 11:44:03;;;;;;;10.03;9.03;;;;;;;4.72;72.73;96136.19;4335016;32;20282;-61
2022/01/16 11:46:30;;;;;;;10.50;9.47;;;;;;;4.84;72.89;96131.66;4320660;32;20286;-61
2022/01/16 11:49:02;;;;;;;10.27;9.17;;;;;;;4.83;72.85;96142.41;4347040;32;20278;-61
2022/01/16 11:54:51;;;;;;;10.83;9.73;;;;;;;4.86;73.09;96133.25;4356402;32;20501;-61
2022/01/16 11:57:31;;;;;;;10.33;8.93;;;;;;;4.74;73.16;96126.25;4344054;32;20277;-61
2022/01/16 12:00:16;;;;;;;10.77;9.67;;;;;;;4.81;73.01;96134.75;4351836;32;20353;-61
2022/01/16 12:02:45;;;;;;;10.70;9.60;;;;;;;4.92;72.65;96134.94;4359868;32;20269;-61
2022/01/16 12:05:20;;;;;;;10.93;9.10;;;;;;;4.79;72.50;96136.81;4348684;32;20261;-61
2022/01/16 12:07:48;;;;;;;10.53;9.53;;;;;;;4.90;72.05;96129.13;4351279;32;20299;-61
2022/01/16 12:10:38;;;;;;;11.37;9.83;;;;;;;4.87;72.10;96138.28;4345388;32;20278;-61
2022/01/16 12:13:05;;;;;;;10.13;9.13;;;;;;;4.99;72.08;96146.13;4354099;32;20326;-61
2022/01/16 12:15:32;;;;;;;11.43;9.30;;;;;;;5.05;70.85;96147.78;4352168;32;20352;-61
2022/01/16 12:17:59;;;;;;;12.83;9.23;;;;;;;5.02;71.11;96140.34;4327021;32;20277;-62
2022/01/16 12:20:26;;;;;;;11.00;9.10;;;;;;;5.04;71.16;96138.28;4331340;32;20275;-61
2022/01/16 12:23:12;;;;;;;10.30;8.90;;;;;;;5.17;70.92;96140.62;4337498;32;20331;-61
2022/01/16 12:25:55;;;;;;;10.80;9.73;;;;;;;5.23;70.19;96142.28;4348827;32;20273;-61
2022/01/16 12:28:25;;;;;;;10.60;9.50;;;;;;;5.20;70.01;96145.37;4349866;32;20306;-61